Latest Weather Observations for Canberra

IDN60801

Issued at 10:05 am EST Saturday 2 August 2014 (issued every 30 minutes, with the page automatically refreshed every 10 minutes)

About weather observations | Map of weather stations | Latest weather observations for NSW | Other Formats
Station Details ID: 070351 Name: CANBERRA AIRPORT Lat: -35.31 Lon: 149.20 Height: 577.05 m
Data from the previous 72 hours. | See also: Recent months at Canberra
Date/Time
EST
Temp
°C
App
Temp
°C
Dew
Point
Rel
Hum
%
Delta-T
°C
Wind Press
QNH
hPa
Press
MSL
hPa
Rain
since 9 am
mm
Dir
 
Spd
km/h
Gust
km/h
Spd
kts
Gust
kts
02/10:00am 5.0 1.1 -1.4 63 2.4 S 9 13 5 7 1026.2 - 0.0
02/09:30am 4.3 1.2 -0.1 73 1.7 NNW 6 7 3 4 1026.1 - 0.0
02/09:00am 2.7 0.3 -0.2 81 1.1 W 2 6 1 3 1025.7 1026.7 0.8
02/08:30am 0.9 -2.5 -0.9 88 0.7 SSW 7 11 4 6 1025.1 - 0.8
02/08:00am -1.0 -4.5 -2.9 87 0.6 S 6 11 3 6 1024.4 - 0.8
02/07:30am -1.3 -4.4 -2.3 93 0.3 N 4 9 2 5 1023.7 - 0.8
02/07:00am -1.5 -4.9 -2.2 95 0.2 N 6 9 3 5 1023.0 - 0.8
02/06:30am -3.5 -7.4 -4.3 94 0.1 SE 7 11 4 6 1022.0 - 0.8
02/06:00am -3.9 -6.9 -5.3 90 0.3 N 2 7 1 4 1021.6 1022.6 0.8
02/05:30am -2.3 -6.0 -4.3 86 0.6 N 6 7 3 4 1020.7 - 0.8
02/05:00am -0.6 -4.2 -2.3 88 0.6 NE 7 11 4 6 1020.4 - 0.8
02/04:30am -0.6 -3.7 -2.8 85 0.7 SSE 4 7 2 4 1019.8 - 0.8
02/04:00am 0.0 -3.5 -2.5 83 0.9 NW 6 9 3 5 1019.3 - 0.8
02/03:30am 1.2 -4.2 -1.4 83 0.9 NW 17 24 9 13 1018.8 - 0.8
02/03:00am 1.2 -3.8 -1.5 82 1.0 NW 15 19 8 10 1018.2 1019.1 0.8
02/02:30am 1.2 -3.5 -1.9 80 1.1 N 13 17 7 9 1018.1 - 0.8
02/02:00am 1.6 -3.9 -2.2 76 1.4 WNW 17 26 9 14 1017.5 - 0.8
02/01:30am 2.0 -3.8 -1.6 77 1.3 NW 19 32 10 17 1016.9 - 0.8
02/01:00am 1.7 -4.1 -1.7 78 1.2 WNW 19 26 10 14 1016.7 - 0.8
02/12:30am 2.3 -4.5 -1.7 75 1.5 WNW 24 32 13 17 1016.6 - 0.8
02/12:00am 1.1 -3.6 -1.5 83 0.9 NNW 13 22 7 12 1016.8 1017.7 0.8
 
Date/Time
EST
Temp
°C
App
Temp
°C
Dew
Point
Rel
Hum
%
Delta-T
°C
Wind Press
QNH
hPa
Press
MSL
hPa
Rain
since 9 am
mm
Dir
 
Spd
km/h
Gust
km/h
Spd
kts
Gust
kts
01/11:30pm 1.8 -3.6 -1.4 79 1.2 NW 17 26 9 14 1016.4 - 0.8
01/11:00pm 2.2 -2.8 -1.1 79 1.2 NNW 15 20 8 11 1015.8 - 0.8
01/10:30pm 2.2 -2.8 -1.4 77 1.3 NW 15 20 8 11 1015.4 - 0.8
01/10:00pm 2.4 -2.5 -0.4 82 1.1 NNW 15 20 8 11 1015.1 - 0.8
01/09:30pm 2.2 -2.3 -0.2 84 0.9 N 13 15 7 8 1014.7 - 0.8
01/09:00pm 3.3 -1.9 -0.2 78 1.4 WNW 17 22 9 12 1014.3 1015.2 0.8
01/08:30pm 3.5 -1.6 0.9 83 1.0 NW 17 22 9 12 1014.0 - 0.8
01/08:00pm 3.6 -2.0 1.0 83 1.0 NW 20 26 11 14 1013.5 - 0.8
01/07:30pm 3.2 -2.5 0.8 84 0.9 WNW 20 26 11 14 1013.5 - 0.8
01/07:00pm 2.9 -2.8 0.5 84 0.9 N 20 26 11 14 1012.7 - 0.8
01/06:30pm 2.4 -3.3 -0.4 82 1.1 NW 19 30 10 16 1012.1 - 0.8
01/06:00pm 3.3 -2.1 1.2 86 0.8 NNW 19 24 10 13 1011.7 1012.6 0.8
01/05:30pm 3.0 -2.0 1.2 88 0.7 NNW 17 22 9 12 1011.4 - 0.8
01/05:00pm 2.8 -4.3 1.3 90 0.6 NW 28 41 15 22 1010.6 - 0.8
01/04:30pm 2.9 -3.8 1.6 91 0.5 NNW 26 35 14 19 1010.1 - 0.8
01/04:00pm 3.2 -2.7 1.9 91 0.5 NW 22 28 12 15 1010.1 - 0.4
01/03:37pm 3.9 -4.0 1.1 82 1.1 W 32 54 17 29 1009.5 - 0.0
01/03:33pm 5.0 -2.1 1.5 78 1.4 WNW 28 50 15 27 1009.4 - 0.0
01/03:30pm 5.1 -1.7 0.7 73 1.8 WNW 26 35 14 19 1009.2 - 0.0
01/03:00pm 5.3 -0.9 2.0 79 1.4 NW 24 33 13 18 1008.6 1009.4 0.0
01/02:30pm 4.1 -5.1 1.1 81 1.2 WNW 39 56 21 30 1008.6 - 0.0
01/02:00pm 7.2 -2.2 -0.3 59 3.0 NW 39 52 21 28 1007.9 - 0.0
01/01:30pm 6.1 -1.7 1.4 72 1.9 W 32 43 17 23 1008.2 - 0.0
01/01:00pm 7.3 -0.8 0.7 63 2.7 WNW 33 46 18 25 1008.0 - 0.0
01/12:40pm 7.0 -1.6 0.5 63 2.7 W 35 54 19 29 1008.2 - 0.0
01/12:30pm 6.2 -2.8 0.3 66 2.4 WNW 37 52 20 28 1008.3 - 0.0
01/12:08pm 7.3 -1.3 0.3 61 2.9 WNW 35 57 19 31 1008.4 - 0.0
01/12:00pm 7.2 -2.5 0.4 62 2.8 WNW 41 56 22 30 1008.4 1009.2 0.0
01/11:49am 7.9 -1.6 -0.8 54 3.5 WNW 39 61 21 33 1008.4 - 0.0
01/11:30am 7.3 -1.5 -1.1 55 3.3 NW 35 44 19 24 1008.4 - 0.0
01/11:06am 7.3 -1.4 -0.4 58 3.1 NW 35 54 19 29 1008.6 - 0.0
01/11:00am 7.0 -0.5 -1.4 55 3.3 WNW 28 41 15 22 1008.6 - 0.0
01/10:30am 5.8 -2.7 -3.3 52 3.3 W 32 50 17 27 1008.8 - 0.0
01/10:24am 6.0 -2.1 -2.8 53 3.3 WNW 30 50 16 27 1008.9 - 0.0
01/10:00am 5.5 -1.3 -2.1 58 2.9 WNW 24 33 13 18 1008.7 - 0.0
01/09:30am 5.9 -1.5 -1.0 61 2.7 W 28 41 15 22 1008.6 - 0.0
01/09:00am 5.2 -2.7 -1.5 62 2.6 WNW 30 37 16 20 1008.6 1009.4 0.0
01/08:30am 5.9 -2.3 -0.8 62 2.6 WNW 32 44 17 24 1008.2 - 0.0
01/08:00am 5.7 -1.3 -0.8 63 2.5 WNW 26 33 14 18 1007.5 - 0.0
01/07:30am 4.9 -2.1 -0.3 69 2.0 WNW 26 35 14 19 1007.1 - 0.0
01/07:00am 5.6 -1.7 0.2 68 2.2 WNW 28 37 15 20 1006.5 - 0.0
01/06:30am 5.7 -0.4 0.5 69 2.1 NW 22 30 12 16 1005.7 - 0.0
01/06:00am 6.2 0.5 0.3 66 2.4 WNW 20 26 11 14 1005.5 1006.3 0.0
01/05:30am 6.4 0.3 0.3 65 2.5 WNW 22 30 12 16 1005.5 - 0.0
01/05:00am 7.1 0.7 1.2 66 2.5 W 24 37 13 20 1005.6 - 0.0
01/04:49am 7.6 -0.4 1.9 67 2.4 WNW 33 52 18 28 1005.5 - 0.0
01/04:30am 8.3 1.2 3.6 72 2.1 WNW 30 39 16 21 1004.7 - 0.0
01/04:00am 9.2 3.7 4.0 70 2.4 WNW 22 32 12 17 1003.9 - 0.0
01/03:30am 9.1 2.8 3.7 69 2.4 NW 26 33 14 18 1003.8 - 0.0
01/03:00am 8.9 2.5 3.3 68 2.5 NNW 26 32 14 17 1003.5 1004.2 0.0
01/02:30am 9.4 3.2 2.3 61 3.1 WNW 24 37 13 20 1003.4 - 0.0
01/02:00am 10.6 2.6 0.3 49 4.3 WNW 32 44 17 24 1003.4 - 0.0
01/01:55am 10.7 2.6 -0.1 47 4.5 NW 32 50 17 27 1003.4 - 0.0
01/01:30am 11.7 1.8 -0.8 42 5.2 WNW 41 57 22 31 1003.2 - 0.0
01/01:00am 12.5 3.4 -0.7 40 5.5 NW 37 59 20 32 1002.9 - 0.0
01/12:30am 12.6 3.1 -0.6 40 5.6 NW 39 57 21 31 1002.5 - 0.0
01/12:00am 13.2 2.9 -0.8 38 5.9 NNW 43 54 23 29 1002.3 1003.4 0.0
 
Date/Time
EST
Temp
°C
App
Temp
°C
Dew
Point
Rel
Hum
%
Delta-T
°C
Wind Press
QNH
hPa
Press
MSL
hPa
Rain
since 9 am
mm
Dir
 
Spd
km/h
Gust
km/h
Spd
kts
Gust
kts
31/11:30pm 13.2 2.0 -0.4 39 5.8 NNW 48 67 26 36 1002.7 - 0.0
31/11:03pm 12.9 2.6 0.6 43 5.3 NNW 44 63 24 34 1003.1 - 0.0
31/11:00pm 12.9 2.8 0.6 43 5.3 NNW 43 54 23 29 1003.2 - 0.0
31/10:30pm 12.9 2.7 1.0 44 5.2 NNW 44 59 24 32 1003.3 - 0.0
31/10:11pm 12.9 2.8 1.3 45 5.1 NNW 44 63 24 34 1003.4 - 0.0
31/10:00pm 12.9 2.8 1.6 46 5.0 NNW 44 61 24 33 1003.5 - 0.0
31/09:56pm 12.8 2.9 1.5 46 5.0 NNW 43 61 23 33 1003.6 - 0.0
31/09:30pm 13.1 2.7 2.1 47 4.9 NNW 46 61 25 33 1003.7 - 0.0
31/09:00pm 13.4 3.1 2.6 48 4.9 NW 46 57 25 31 1003.7 1004.8 0.0
31/08:30pm 13.4 3.4 2.3 47 5.0 NNW 44 59 24 32 1003.8 - 0.0
31/08:00pm 13.6 3.2 2.2 46 5.2 NNW 46 59 25 32 1004.0 - 0.0
31/07:30pm 13.5 3.4 1.8 45 5.2 NNW 44 61 24 33 1003.9 - 0.0
31/07:00pm 13.4 4.4 2.6 48 4.9 NNW 39 52 21 28 1004.2 - 0.0
31/06:30pm 13.7 4.0 2.6 47 5.1 NNW 43 59 23 32 1003.9 - 0.0
31/06:00pm 14.3 4.4 2.9 46 5.3 NNW 44 61 24 33 1003.6 1004.7 0.0
31/05:46pm 14.2 4.3 2.8 46 5.2 NNW 44 63 24 34 1003.8 - 0.0
31/05:30pm 14.3 4.4 2.9 46 5.3 NNW 44 57 24 31 1004.0 - 0.0
31/05:00pm 14.9 5.2 3.1 45 5.5 NW 43 56 23 30 1004.2 - 0.0
31/04:41pm 15.1 4.5 3.0 44 5.6 NW 48 69 26 37 1004.5 - 0.0
31/04:30pm 15.4 5.1 2.9 43 5.8 NW 46 63 25 34 1004.7 - 0.0
31/04:00pm 15.8 4.0 2.9 42 6.0 NW 54 72 29 39 1005.1 - 0.0
31/03:38pm 16.0 5.1 3.4 43 6.0 NW 50 70 27 38 1005.3 - 0.0
31/03:30pm 15.9 3.5 2.7 41 6.1 NW 57 72 31 39 1005.5 - 0.0
31/03:00pm 16.0 3.9 3.1 42 6.1 NW 56 76 30 41 1005.7 1006.8 0.0
31/02:30pm 16.2 5.1 2.6 40 6.3 NW 50 70 27 38 1006.0 - 0.0
31/02:00pm 16.1 4.6 2.5 40 6.3 NW 52 72 28 39 1006.6 - 0.0
31/01:30pm 16.2 5.3 3.3 42 6.1 NW 50 76 27 41 1007.2 - 0.0
31/01:17pm 16.4 7.0 4.4 45 5.8 NW 43 69 23 37 1007.6 - 0.0
31/01:00pm 16.2 7.1 3.9 44 5.9 NW 41 56 22 30 1007.9 - 0.0
31/12:30pm 16.1 5.6 3.5 43 6.0 NW 48 69 26 37 1008.6 - 0.0
31/12:12pm 16.7 8.1 4.7 45 5.9 NW 39 59 21 32 1009.1 - 0.0
31/12:00pm 16.5 8.1 3.9 43 6.1 NW 37 52 20 28 1009.4 1010.6 0.0
31/11:47am 16.1 7.8 4.2 45 5.7 NW 37 56 20 30 1010.0 - 0.0
31/11:30am 15.9 6.9 4.3 46 5.6 NNW 41 54 22 29 1010.2 - 0.0
31/11:00am 15.3 6.9 3.8 46 5.5 NNW 37 56 20 30 1010.7 - 0.0
31/10:30am 14.9 7.5 4.9 51 4.8 NNW 33 48 18 26 1011.2 - 0.0
31/10:22am 14.6 7.6 4.3 50 4.9 NNW 30 48 16 26 1011.4 - 0.0
31/10:00am 13.9 6.5 4.2 52 4.6 NNW 32 46 17 25 1011.6 - 0.0
31/09:45am 13.3 6.0 4.5 55 4.2 NNW 32 50 17 27 1011.7 - 0.0
31/09:30am 12.6 6.4 4.1 56 4.0 NNW 26 37 14 20 1011.9 - 0.0
31/09:00am 11.5 4.6 4.5 62 3.3 N 30 41 16 22 1012.0 1013.2 0.0
31/08:30am 10.4 3.4 4.3 66 2.8 N 30 37 16 20 1012.0 - 0.0
31/08:00am 9.5 3.3 4.3 70 2.4 N 26 30 14 16 1012.4 - 0.0
31/07:30am 8.9 2.4 4.5 74 2.0 N 28 35 15 19 1012.4 - 0.0
31/07:00am 8.9 2.7 4.5 74 2.0 N 26 32 14 17 1012.3 - 0.0
31/06:30am 9.2 2.0 4.8 74 2.0 NNW 32 41 17 22 1012.3 - 0.0
31/06:00am 9.2 2.0 5.0 75 2.0 NNW 32 44 17 24 1012.2 1013.4 0.0
31/05:30am 9.1 1.9 4.9 75 1.9 NNW 32 39 17 21 1012.3 - 0.0
31/05:00am 9.5 1.7 5.1 74 2.1 NNW 35 44 19 24 1012.3 - 0.0
31/04:30am 10.1 2.8 5.3 72 2.3 NNW 33 43 18 23 1012.3 - 0.0
31/04:00am 10.6 3.3 5.6 71 2.4 NNW 33 44 18 24 1012.6 - 0.0
31/03:30am 10.7 4.0 5.7 71 2.4 NNW 30 39 16 21 1012.8 - 0.0
31/03:00am 10.8 4.1 5.6 70 2.5 NNW 30 41 16 22 1013.0 1014.3 0.0
31/02:30am 11.4 5.1 5.9 69 2.6 NNW 28 37 15 20 1013.4 - 0.0
31/02:00am 11.5 4.9 6.2 70 2.6 NNW 30 39 16 21 1013.9 - 0.0
31/01:30am 11.3 5.5 6.4 72 2.4 NNW 26 35 14 19 1014.3 - 0.0
31/01:00am 11.4 5.3 6.7 73 2.3 NNW 28 35 15 19 1014.5 - 0.0
31/12:30am 11.3 5.2 6.6 73 2.3 NNW 28 33 15 18 1014.8 - 0.0
31/12:00am 12.2 5.8 6.9 70 2.6 NNW 30 37 16 20 1015.0 1016.3 0.0
 
Date/Time
EST
Temp
°C
App
Temp
°C
Dew
Point
Rel
Hum
%
Delta-T
°C
Wind Press
QNH
hPa
Press
MSL
hPa
Rain
since 9 am
mm
Dir
 
Spd
km/h
Gust
km/h
Spd
kts
Gust
kts
30/11:30pm 12.2 5.5 7.3 72 2.4 NNW 32 39 17 21 1015.6 - 0.0
30/11:00pm 11.8 5.2 7.9 77 2.0 NW 32 41 17 22 1015.4 - 0.0
30/10:30pm 12.1 5.5 7.8 75 2.2 NW 32 41 17 22 1015.9 - 0.0
30/10:00pm 12.3 5.6 8.0 75 2.2 NW 33 41 18 22 1015.9 - 0.0
30/09:30pm 12.2 5.7 8.1 76 2.1 NW 32 39 17 21 1016.0 - 0.0
30/09:00pm 12.2 6.2 8.5 78 1.9 NW 30 37 16 20 1016.2 1017.5 0.0
30/08:30pm 12.3 5.9 8.6 78 1.9 NW 32 41 17 22 1016.2 - 0.0
30/08:00pm 12.7 6.1 8.4 75 2.2 NW 33 46 18 25 1016.2 - 0.0
30/07:30pm 12.7 6.0 8.2 74 2.3 NW 33 39 18 21 1015.9 - 0.0
30/07:00pm 12.7 6.9 7.8 72 2.5 NW 28 35 15 19 1015.9 - 0.0
30/06:30pm 12.8 6.9 7.5 70 2.7 WNW 28 41 15 22 1016.2 - 0.0
30/06:00pm 13.0 6.3 7.5 69 2.8 WNW 32 43 17 23 1015.9 1017.1 0.0
30/05:30pm 12.9 7.0 7.6 70 2.7 WNW 28 37 15 20 1015.4 - 0.0
30/05:00pm 13.3 8.1 7.3 67 3.0 WNW 24 35 13 19 1015.2 - 0.0
30/04:30pm 13.7 6.9 7.7 67 3.1 NW 33 44 18 24 1014.7 - 0.0
30/04:00pm 13.3 7.1 7.7 69 2.8 NW 30 41 16 22 1014.6 - 0.0
30/03:28pm 13.7 7.1 7.7 67 3.1 NW 32 50 17 27 1014.8 - 0.0
30/03:00pm 13.4 7.2 8.0 70 2.8 NW 30 41 16 22 1015.0 1016.3 0.0
30/02:42pm 13.5 7.3 7.7 68 2.9 NW 30 48 16 26 1015.1 - 0.0
30/02:30pm 13.8 7.9 7.6 66 3.1 NNW 28 39 15 21 1015.2 - 0.0
30/02:00pm 12.3 5.7 8.4 77 2.0 NNW 33 43 18 23 1015.9 - 0.0
30/01:30pm 12.9 5.1 8.2 73 2.4 NW 39 52 21 28 1015.8 - 0.0
30/12:54pm 13.2 7.1 8.1 71 2.6 NW 30 48 16 26 1016.3 - 0.0
30/12:25pm 12.5 6.0 8.8 78 1.9 NW 33 43 18 23 1016.9 - 0.0
30/12:21pm 12.5 6.0 8.8 78 1.9 NW 33 43 18 23 1016.9 - 0.0
30/12:00pm 12.8 6.3 8.9 77 2.0 NNW 33 43 18 23 1016.8 1018.1 0.0
30/11:30am 12.7 5.9 9.2 79 1.8 NNW 35 50 19 27 1017.4 - 0.0
30/11:17am 12.5 5.3 9.0 79 1.8 NNW 37 48 20 26 1017.5 - 0.0
30/11:00am 13.5 6.2 8.8 73 2.4 NW 37 48 20 26 1017.6 - 0.0
30/10:30am 13.4 6.9 8.9 74 2.3 NNW 33 44 18 24 1017.7 - 0.0

Other Formats:

Comma delimited format used in spreadsheet applications
http://www.bom.gov.au/fwo/IDN60801/IDN60801.94926.axf

JavaScript Object Notation format (JSON) in row-major order
http://www.bom.gov.au/fwo/IDN60801/IDN60801.94926.json